Jahroma, Russia
Current Conditions -  °F | °C
As of 3:30 AM on Tuesday 21 Oct 2014 (Local Time) from UUEE Reporting Station
Haze Haze  
Wind Chill: 28°   Ceiling: 200
Heat Index: 34°   Visibility: 1.1mi
Dew Point: 34°   Wind: 7mph
Humidity: 100%   Direction: 80°E
Pressure: 29.32"   Gusts: NA
Location:  56.3°N, 37.48°E
Report Text: UUEE 210030Z 08003MPS 1800 BR OVC002 01/01 Q0993 0729014557290145 TEMPO 0300 FG VV001
Loading
Personal Weather Stations






























Interactive Weather Map
Tropical Storm Tracking
New forecast layout! Learn more

10-Day Weather Forecast

Advertisements
Track Severe Weather on mobile